메인 페이지
METAR-TAF:

METAR-TAF

공항 :

Redwood Falls Municipal Airport

Redwood Falls, 미네소타, 미국

위도: 44-32-50N, 경도: 095-04-56W, 고도: 312m

현재 날씨관측

예보는 33분 전, 13:14시(UTC)에 발표되었습니다.
서북서8kt
온도 10°C
습도 93%
기압 1004 hPa
시정: 6.4km
고도 2100ft 상공 구름 보통
박무

METAR: KRWF 071314Z AUTO 29008KT 4SM BR SCT021 10/09 A2966 RMK AO2 T01000094

시각: 08:47 (13:47 UTC)

예보

예보는 31분 전, 13:16시(UTC)에 발표되었습니다.
예보 대상 시간: 07일 13시부터 08일 12시까지 (UTC)
5kt
시정: 4.8km
고도 2100ft 상공 구름 많음
박무
07일 1500시부터 (UTC)
북서12kt, 순간 최대 풍속 18kt
시정: 10km
고도 12000ft 상공 구름 보통
08일 0000시부터 (UTC)
여러 방향의 바람 5kt
시정: 10km
맑음
08일 0800시부터 (UTC)
7kt
시정: 10km
고도 15000ft 상공 구름 많음

TAF: KRWF 071316Z 0713/0812 26005KT 3SM BR BKN021 FM071500 32012G18KT P6SM SCT120 FM080000 VRB05KT P6SM SKC FM080800 28007KT P6SM BKN150

4,000개 이상의 공항 관측 자료 및 예보 (METAR 및 TAF 보고).

지도상에서 검색 가능한 기상관측소가 노란 점과 빨간 점으로 표시되어 있습니다.

기상관측소 명을 보려면 표시 위로 마우스를 이동하세요.

날씨 관측과 예보를 보려면 클릭하세요.

지도 변경 : 확대하려면 엑스 표시가 있는 녹색 버튼, 축소하려면 빼기 표시가 있는 녹색 버튼, 다음 페이지의 지도를 보려면 녹색 화살표를 클릭하세요.


METAR-TAF: